sensor_id;sensor_type;location;lat;lon;timestamp;temperature;humidity
21551;DHT22;10936;49.836;7.078;2022-10-16T06:00:56;19.80;99.90
21551;DHT22;10936;49.836;7.078;2022-10-16T06:03:22;19.90;99.90
21551;DHT22;10936;49.836;7.078;2022-10-16T06:05:47;19.80;99.90
21551;DHT22;10936;49.836;7.078;2022-10-16T06:08:13;19.80;99.90
21551;DHT22;10936;49.836;7.078;2022-10-16T06:10:39;19.90;99.90
21551;DHT22;10936;49.836;7.078;2022-10-16T06:13:05;19.90;99.90
21551;DHT22;10936;49.836;7.078;2022-10-16T06:15:30;19.90;99.90
21551;DHT22;10936;49.836;7.078;2022-10-16T06:17:56;19.90;99.90
21551;DHT22;10936;49.836;7.078;2022-10-16T06:20:21;19.90;99.90
21551;DHT22;10936;49.836;7.078;2022-10-16T06:22:47;19.90;99.90
21551;DHT22;10936;49.836;7.078;2022-10-16T06:25:13;19.90;99.90
21551;DHT22;10936;49.836;7.078;2022-10-16T06:27:41;19.90;99.90
21551;DHT22;10936;49.836;7.078;2022-10-16T06:30:07;19.90;99.90
21551;DHT22;10936;49.836;7.078;2022-10-16T06:32:33;19.90;99.90
21551;DHT22;10936;49.836;7.078;2022-10-16T06:34:59;19.80;99.90
21551;DHT22;10936;49.836;7.078;2022-10-16T06:37:24;19.90;99.90
21551;DHT22;10936;49.836;7.078;2022-10-16T06:39:50;19.80;99.90
21551;DHT22;10936;49.836;7.078;2022-10-16T06:42:18;19.80;99.90
21551;DHT22;10936;49.836;7.078;2022-10-16T06:44:44;19.80;99.90
21551;DHT22;10936;49.836;7.078;2022-10-16T06:47:10;19.80;99.90
21551;DHT22;10936;49.836;7.078;2022-10-16T06:49:35;19.90;99.90
21551;DHT22;10936;49.836;7.078;2022-10-16T06:52:01;19.90;99.90
21551;DHT22;10936;49.836;7.078;2022-10-16T06:54:27;19.80;99.90
21551;DHT22;10936;49.836;7.078;2022-10-16T06:56:53;19.90;99.90
21551;DHT22;10936;49.836;7.078;2022-10-16T06:59:21;19.90;99.90
21551;DHT22;10936;49.836;7.078;2022-10-16T07:01:47;19.80;99.90
21551;DHT22;10936;49.836;7.078;2022-10-16T07:04:13;19.90;99.90
21551;DHT22;10936;49.836;7.078;2022-10-16T07:06:39;19.90;99.90
21551;DHT22;10936;49.836;7.078;2022-10-16T07:09:07;19.90;99.90
21551;DHT22;10936;49.836;7.078;2022-10-16T07:11:33;19.80;99.90
21551;DHT22;10936;49.836;7.078;2022-10-16T07:13:59;19.90;99.90
21551;DHT22;10936;49.836;7.078;2022-10-16T07:16:27;19.90;99.90
21551;DHT22;10936;49.836;7.078;2022-10-16T07:18:54;19.90;99.90
21551;DHT22;10936;49.836;7.078;2022-10-16T07:21:25;19.80;99.90
21551;DHT22;10936;49.836;7.078;2022-10-16T07:23:56;19.80;99.90
21551;DHT22;10936;49.836;7.078;2022-10-16T07:26:23;19.80;99.90
21551;DHT22;10936;49.836;7.078;2022-10-16T07:28:49;19.90;99.90
21551;DHT22;10936;49.836;7.078;2022-10-16T07:31:16;19.90;99.90
21551;DHT22;10936;49.836;7.078;2022-10-16T07:33:43;19.90;99.90
21551;DHT22;10936;49.836;7.078;2022-10-16T07:36:11;19.90;99.90
21551;DHT22;10936;49.836;7.078;2022-10-16T07:38:37;19.90;99.90
21551;DHT22;10936;49.836;7.078;2022-10-16T07:41:05;19.90;99.90
21551;DHT22;10936;49.836;7.078;2022-10-16T07:43:32;19.90;99.90
21551;DHT22;10936;49.836;7.078;2022-10-16T07:45:57;19.80;99.90
21551;DHT22;10936;49.836;7.078;2022-10-16T07:48:26;19.80;99.90
21551;DHT22;10936;49.836;7.078;2022-10-16T07:50:52;19.90;99.90
21551;DHT22;10936;49.836;7.078;2022-10-16T07:53:18;19.90;99.90
21551;DHT22;10936;49.836;7.078;2022-10-16T07:55:43;19.90;99.90
21551;DHT22;10936;49.836;7.078;2022-10-16T07:58:09;19.90;99.90
21551;DHT22;10936;49.836;7.078;2022-10-16T08:00:36;19.90;99.90
21551;DHT22;10936;49.836;7.078;2022-10-16T08:03:02;19.90;99.90
21551;DHT22;10936;49.836;7.078;2022-10-16T08:05:29;19.90;99.90
21551;DHT22;10936;49.836;7.078;2022-10-16T08:07:55;19.90;99.90
21551;DHT22;10936;49.836;7.078;2022-10-16T08:10:24;19.90;99.90
21551;DHT22;10936;49.836;7.078;2022-10-16T08:12:50;19.90;99.90
21551;DHT22;10936;49.836;7.078;2022-10-16T08:15:16;19.90;99.90
21551;DHT22;10936;49.836;7.078;2022-10-16T08:17:42;19.90;99.90
21551;DHT22;10936;49.836;7.078;2022-10-16T08:20:09;19.90;99.90
21551;DHT22;10936;49.836;7.078;2022-10-16T08:22:34;19.90;99.90
21551;DHT22;10936;49.836;7.078;2022-10-16T08:25:00;19.90;99.90
21551;DHT22;10936;49.836;7.078;2022-10-16T08:27:33;19.90;99.90
21551;DHT22;10936;49.836;7.078;2022-10-16T08:29:59;20.00;99.90
21551;DHT22;10936;49.836;7.078;2022-10-16T08:32:25;20.00;99.90
21551;DHT22;10936;49.836;7.078;2022-10-16T08:34:50;20.00;99.90
21551;DHT22;10936;49.836;7.078;2022-10-16T08:37:16;20.00;99.90
21551;DHT22;10936;49.836;7.078;2022-10-16T08:39:41;19.90;99.90
21551;DHT22;10936;49.836;7.078;2022-10-16T08:45:02;20.00;99.90
21551;DHT22;10936;49.836;7.078;2022-10-16T08:47:48;20.00;99.90
21551;DHT22;10936;49.836;7.078;2022-10-16T08:50:23;20.00;99.90
21551;DHT22;10936;49.836;7.078;2022-10-16T08:52:50;20.00;99.90
21551;DHT22;10936;49.836;7.078;2022-10-16T08:55:28;20.00;99.90
21551;DHT22;10936;49.836;7.078;2022-10-16T08:57:54;20.00;99.90
21551;DHT22;10936;49.836;7.078;2022-10-16T09:00:20;20.00;99.90
21551;DHT22;10936;49.836;7.078;2022-10-16T09:02:54;20.00;99.90
21551;DHT22;10936;49.836;7.078;2022-10-16T09:05:31;20.00;99.90
21551;DHT22;10936;49.836;7.078;2022-10-16T09:08:20;20.00;99.90
21551;DHT22;10936;49.836;7.078;2022-10-16T09:13:26;20.00;99.90
21551;DHT22;10936;49.836;7.078;2022-10-16T09:18:45;20.00;99.90
21551;DHT22;10936;49.836;7.078;2022-10-16T09:21:21;20.00;99.90
21551;DHT22;10936;49.836;7.078;2022-10-16T09:23:49;20.00;99.90
21551;DHT22;10936;49.836;7.078;2022-10-16T09:26:16;20.10;99.90
21551;DHT22;10936;49.836;7.078;2022-10-16T09:28:43;20.10;99.90
21551;DHT22;10936;49.836;7.078;2022-10-16T09:31:16;20.00;99.90
21551;DHT22;10936;49.836;7.078;2022-10-16T09:33:44;20.10;99.90
21551;DHT22;10936;49.836;7.078;2022-10-16T09:36:11;20.10;99.90
21551;DHT22;10936;49.836;7.078;2022-10-16T09:38:38;20.00;99.90
21551;DHT22;10936;49.836;7.078;2022-10-16T09:41:19;19.90;99.90
21551;DHT22;10936;49.836;7.078;2022-10-16T09:43:56;19.80;99.90
21551;DHT22;10936;49.836;7.078;2022-10-16T09:46:29;19.80;99.90
21551;DHT22;10936;49.836;7.078;2022-10-16T09:48:57;19.70;99.90
21551;DHT22;10936;49.836;7.078;2022-10-16T09:51:27;19.70;99.90
21551;DHT22;10936;49.836;7.078;2022-10-16T09:54:00;19.60;99.90
21551;DHT22;10936;49.836;7.078;2022-10-16T09:56:32;19.50;99.90
21551;DHT22;10936;49.836;7.078;2022-10-16T09:59:00;19.50;99.90
21551;DHT22;10936;49.836;7.078;2022-10-16T10:01:35;19.50;99.90
21551;DHT22;10936;49.836;7.078;2022-10-16T10:04:03;19.50;99.90
21551;DHT22;10936;49.836;7.078;2022-10-16T10:06:33;19.50;99.90
21551;DHT22;10936;49.836;7.078;2022-10-16T10:16:46;19.20;99.90
21551;DHT22;10936;49.836;7.078;2022-10-16T10:21:43;19.10;99.90
21551;DHT22;10936;49.836;7.078;2022-10-16T10:24:15;19.10;99.90
21551;DHT22;10936;49.836;7.078;2022-10-16T10:32:28;19.20;99.90
21551;DHT22;10936;49.836;7.078;2022-10-16T10:38:06;19.40;99.90
21551;DHT22;10936;49.836;7.078;2022-10-16T10:43:53;19.60;99.90
21551;DHT22;10936;49.836;7.078;2022-10-16T10:46:35;19.60;99.90
21551;DHT22;10936;49.836;7.078;2022-10-16T10:49:24;19.60;99.90
21551;DHT22;10936;49.836;7.078;2022-10-16T10:53:16;19.70;99.90
21551;DHT22;10936;49.836;7.078;2022-10-16T11:08:50;19.60;99.90
21551;DHT22;10936;49.836;7.078;2022-10-16T11:11:24;19.70;99.90
21551;DHT22;10936;49.836;7.078;2022-10-16T11:14:21;19.70;99.90
21551;DHT22;10936;49.836;7.078;2022-10-16T11:17:08;19.80;99.90
21551;DHT22;10936;49.836;7.078;2022-10-16T11:19:56;19.90;99.90
21551;DHT22;10936;49.836;7.078;2022-10-16T11:22:34;19.90;99.90
21551;DHT22;10936;49.836;7.078;2022-10-16T11:27:50;19.80;99.90
21551;DHT22;10936;49.836;7.078;2022-10-16T11:30:26;19.80;99.90
21551;DHT22;10936;49.836;7.078;2022-10-16T11:38:46;19.80;99.90
21551;DHT22;10936;49.836;7.078;2022-10-16T11:44:25;19.80;99.90
21551;DHT22;10936;49.836;7.078;2022-10-16T11:49:53;19.90;99.90
21551;DHT22;10936;49.836;7.078;2022-10-16T11:52:36;19.90;99.90
21551;DHT22;10936;49.836;7.078;2022-10-16T11:55:32;19.90;99.90
21551;DHT22;10936;49.836;7.078;2022-10-16T11:58:09;19.90;99.90
21551;DHT22;10936;49.836;7.078;2022-10-16T12:03:50;19.80;99.90
21551;DHT22;10936;49.836;7.078;2022-10-16T12:08:54;19.80;99.90
21551;DHT22;10936;49.836;7.078;2022-10-16T12:16:31;19.90;99.90
21551;DHT22;10936;49.836;7.078;2022-10-16T12:19:17;19.90;99.90
21551;DHT22;10936;49.836;7.078;2022-10-16T12:21:43;19.90;99.90
21551;DHT22;10936;49.836;7.078;2022-10-16T12:24:50;19.90;99.90
21551;DHT22;10936;49.836;7.078;2022-10-16T12:27:31;19.90;99.90
21551;DHT22;10936;49.836;7.078;2022-10-16T12:30:02;20.00;99.90
21551;DHT22;10936;49.836;7.078;2022-10-16T12:32:37;20.10;99.90
21551;DHT22;10936;49.836;7.078;2022-10-16T12:35:06;20.00;99.90
21551;DHT22;10936;49.836;7.078;2022-10-16T12:37:42;20.10;99.90
21551;DHT22;10936;49.836;7.078;2022-10-16T12:40:29;20.10;99.90
21551;DHT22;10936;49.836;7.078;2022-10-16T12:42:56;20.10;99.90
21551;DHT22;10936;49.836;7.078;2022-10-16T12:45:33;20.10;99.90
21551;DHT22;10936;49.836;7.078;2022-10-16T12:48:01;20.00;99.90
21551;DHT22;10936;49.836;7.078;2022-10-16T12:50:38;20.10;99.90
21551;DHT22;10936;49.836;7.078;2022-10-16T12:58:36;20.00;99.90
21551;DHT22;10936;49.836;7.078;2022-10-16T13:01:29;20.10;99.90
21551;DHT22;10936;49.836;7.078;2022-10-16T13:06:35;20.10;99.90
21551;DHT22;10936;49.836;7.078;2022-10-16T13:12:11;20.10;99.90
21551;DHT22;10936;49.836;7.078;2022-10-16T13:18:05;20.10;99.90
21551;DHT22;10936;49.836;7.078;2022-10-16T13:23:44;20.10;99.90
21551;DHT22;10936;49.836;7.078;2022-10-16T13:26:26;20.10;99.90
21551;DHT22;10936;49.836;7.078;2022-10-16T13:28:59;20.10;99.90
21551;DHT22;10936;49.836;7.078;2022-10-16T13:31:25;20.00;99.90
21551;DHT22;10936;49.836;7.078;2022-10-16T13:33:53;20.00;99.90
21551;DHT22;10936;49.836;7.078;2022-10-16T13:36:23;20.00;99.90
21551;DHT22;10936;49.836;7.078;2022-10-16T13:39:15;20.00;99.90
21551;DHT22;10936;49.836;7.078;2022-10-16T13:41:43;20.00;99.90
21551;DHT22;10936;49.836;7.078;2022-10-16T13:44:19;20.00;99.90
21551;DHT22;10936;49.836;7.078;2022-10-16T13:46:45;20.00;99.90
21551;DHT22;10936;49.836;7.078;2022-10-16T13:49:16;20.00;99.90
21551;DHT22;10936;49.836;7.078;2022-10-16T13:51:56;20.00;99.90
21551;DHT22;10936;49.836;7.078;2022-10-16T13:54:23;19.90;99.90
21551;DHT22;10936;49.836;7.078;2022-10-16T13:56:49;19.90;99.90
21551;DHT22;10936;49.836;7.078;2022-10-16T13:59:26;19.90;99.90
21551;DHT22;10936;49.836;7.078;2022-10-16T14:01:58;19.90;99.90
21551;DHT22;10936;49.836;7.078;2022-10-16T14:04:31;19.90;99.90
21551;DHT22;10936;49.836;7.078;2022-10-16T14:06:57;19.90;99.90
21551;DHT22;10936;49.836;7.078;2022-10-16T14:09:28;19.90;99.90
21551;DHT22;10936;49.836;7.078;2022-10-16T14:12:01;19.90;99.90
21551;DHT22;10936;49.836;7.078;2022-10-16T14:14:40;19.90;99.90
21551;DHT22;10936;49.836;7.078;2022-10-16T14:17:12;19.90;99.90
21551;DHT22;10936;49.836;7.078;2022-10-16T14:19:38;19.90;99.90
21551;DHT22;10936;49.836;7.078;2022-10-16T14:24:45;20.00;99.90
21551;DHT22;10936;49.836;7.078;2022-10-16T14:30:18;20.00;99.90
21551;DHT22;10936;49.836;7.078;2022-10-16T14:37:57;20.00;99.90
21551;DHT22;10936;49.836;7.078;2022-10-16T14:40:26;20.00;99.90
21551;DHT22;10936;49.836;7.078;2022-10-16T14:42:53;20.00;99.90
21551;DHT22;10936;49.836;7.078;2022-10-16T14:45:21;20.00;99.90
21551;DHT22;10936;49.836;7.078;2022-10-16T14:47:50;20.10;99.90
21551;DHT22;10936;49.836;7.078;2022-10-16T14:50:16;20.10;99.90
21551;DHT22;10936;49.836;7.078;2022-10-16T14:52:41;20.10;99.90
21551;DHT22;10936;49.836;7.078;2022-10-16T14:55:09;20.10;99.90
21551;DHT22;10936;49.836;7.078;2022-10-16T14:57:37;20.10;99.90
21551;DHT22;10936;49.836;7.078;2022-10-16T15:00:10;20.10;99.90
21551;DHT22;10936;49.836;7.078;2022-10-16T15:02:38;20.10;99.90
21551;DHT22;10936;49.836;7.078;2022-10-16T15:05:16;20.10;99.90
21551;DHT22;10936;49.836;7.078;2022-10-16T15:07:43;20.20;99.90
21551;DHT22;10936;49.836;7.078;2022-10-16T15:10:09;20.20;99.90
21551;DHT22;10936;49.836;7.078;2022-10-16T15:12:35;20.20;99.90
21551;DHT22;10936;49.836;7.078;2022-10-16T15:15:01;20.20;99.90
21551;DHT22;10936;49.836;7.078;2022-10-16T15:17:27;20.20;99.90
21551;DHT22;10936;49.836;7.078;2022-10-16T15:19:52;20.30;99.90
21551;DHT22;10936;49.836;7.078;2022-10-16T15:22:18;20.30;99.90
21551;DHT22;10936;49.836;7.078;2022-10-16T15:24:44;20.30;99.90
21551;DHT22;10936;49.836;7.078;2022-10-16T15:27:09;20.30;99.90
21551;DHT22;10936;49.836;7.078;2022-10-16T15:29:35;20.30;99.90
21551;DHT22;10936;49.836;7.078;2022-10-16T15:32:01;20.30;99.90
21551;DHT22;10936;49.836;7.078;2022-10-16T15:34:26;20.30;99.90
21551;DHT22;10936;49.836;7.078;2022-10-16T15:36:52;20.40;99.90
21551;DHT22;10936;49.836;7.078;2022-10-16T15:39:20;20.40;99.90
21551;DHT22;10936;49.836;7.078;2022-10-16T15:41:47;20.30;99.90
21551;DHT22;10936;49.836;7.078;2022-10-16T15:44:17;20.30;99.90
21551;DHT22;10936;49.836;7.078;2022-10-16T15:46:42;20.40;99.90
21551;DHT22;10936;49.836;7.078;2022-10-16T15:49:08;20.40;99.90
21551;DHT22;10936;49.836;7.078;2022-10-16T15:51:38;20.40;99.90
21551;DHT22;10936;49.836;7.078;2022-10-16T15:54:04;20.40;99.90
21551;DHT22;10936;49.836;7.078;2022-10-16T15:56:30;20.40;99.90
21551;DHT22;10936;49.836;7.078;2022-10-16T15:58:59;20.40;99.90
21551;DHT22;10936;49.836;7.078;2022-10-16T16:01:25;20.40;99.90
21551;DHT22;10936;49.836;7.078;2022-10-16T16:03:54;20.40;99.90
21551;DHT22;10936;49.836;7.078;2022-10-16T16:06:20;20.40;99.90
21551;DHT22;10936;49.836;7.078;2022-10-16T16:08:46;20.40;99.90
21551;DHT22;10936;49.836;7.078;2022-10-16T16:11:13;20.40;99.90
21551;DHT22;10936;49.836;7.078;2022-10-16T16:13:40;20.40;99.90
21551;DHT22;10936;49.836;7.078;2022-10-16T16:16:11;20.40;99.90
21551;DHT22;10936;49.836;7.078;2022-10-16T16:18:37;20.40;99.90
21551;DHT22;10936;49.836;7.078;2022-10-16T16:21:04;20.40;99.90
21551;DHT22;10936;49.836;7.078;2022-10-16T16:23:30;20.40;99.90
21551;DHT22;10936;49.836;7.078;2022-10-16T16:26:10;20.40;99.90
21551;DHT22;10936;49.836;7.078;2022-10-16T16:28:38;20.50;99.90
21551;DHT22;10936;49.836;7.078;2022-10-16T16:31:04;20.50;99.90
21551;DHT22;10936;49.836;7.078;2022-10-16T16:33:30;20.50;99.90
21551;DHT22;10936;49.836;7.078;2022-10-16T16:36:02;20.50;99.90
21551;DHT22;10936;49.836;7.078;2022-10-16T16:38:28;20.50;99.90
21551;DHT22;10936;49.836;7.078;2022-10-16T16:40:54;20.50;99.90
21551;DHT22;10936;49.836;7.078;2022-10-16T16:43:23;20.50;99.90
21551;DHT22;10936;49.836;7.078;2022-10-16T16:45:50;20.50;99.90
21551;DHT22;10936;49.836;7.078;2022-10-16T16:48:15;20.50;99.90
21551;DHT22;10936;49.836;7.078;2022-10-16T16:50:41;20.50;99.90
21551;DHT22;10936;49.836;7.078;2022-10-16T16:53:07;20.60;99.90
21551;DHT22;10936;49.836;7.078;2022-10-16T16:55:33;20.60;99.90
21551;DHT22;10936;49.836;7.078;2022-10-16T16:57:58;20.60;99.90
21551;DHT22;10936;49.836;7.078;2022-10-16T17:00:24;20.50;99.90
21551;DHT22;10936;49.836;7.078;2022-10-16T17:02:50;20.50;99.90
21551;DHT22;10936;49.836;7.078;2022-10-16T17:05:16;20.60;99.90
21551;DHT22;10936;49.836;7.078;2022-10-16T17:07:42;20.60;99.90
21551;DHT22;10936;49.836;7.078;2022-10-16T17:10:08;20.60;99.90
21551;DHT22;10936;49.836;7.078;2022-10-16T17:12:34;20.60;99.90
21551;DHT22;10936;49.836;7.078;2022-10-16T17:15:00;20.60;99.90
21551;DHT22;10936;49.836;7.078;2022-10-16T17:17:25;20.60;99.90
21551;DHT22;10936;49.836;7.078;2022-10-16T17:19:51;20.60;99.90
21551;DHT22;10936;49.836;7.078;2022-10-16T17:22:18;20.60;99.90
21551;DHT22;10936;49.836;7.078;2022-10-16T17:24:44;20.60;99.90
21551;DHT22;10936;49.836;7.078;2022-10-16T17:27:15;20.60;99.90
21551;DHT22;10936;49.836;7.078;2022-10-16T17:29:40;20.60;99.90
21551;DHT22;10936;49.836;7.078;2022-10-16T17:32:06;20.60;99.90
21551;DHT22;10936;49.836;7.078;2022-10-16T17:34:32;20.60;99.90
21551;DHT22;10936;49.836;7.078;2022-10-16T17:36:57;20.60;99.90
21551;DHT22;10936;49.836;7.078;2022-10-16T17:39:23;20.60;99.90
21551;DHT22;10936;49.836;7.078;2022-10-16T17:41:48;20.60;99.90
21551;DHT22;10936;49.836;7.078;2022-10-16T17:44:14;20.60;99.90
21551;DHT22;10936;49.836;7.078;2022-10-16T17:46:46;20.60;99.90
21551;DHT22;10936;49.836;7.078;2022-10-16T17:49:12;20.60;99.90
21551;DHT22;10936;49.836;7.078;2022-10-16T17:51:37;20.60;99.90
21551;DHT22;10936;49.836;7.078;2022-10-16T17:54:03;20.60;99.90
21551;DHT22;10936;49.836;7.078;2022-10-16T17:56:29;20.60;99.90
21551;DHT22;10936;49.836;7.078;2022-10-16T17:58:58;20.70;99.90
21551;DHT22;10936;49.836;7.078;2022-10-16T18:01:29;20.70;99.90
21551;DHT22;10936;49.836;7.078;2022-10-16T18:03:58;20.70;99.90
21551;DHT22;10936;49.836;7.078;2022-10-16T18:06:24;20.70;99.90
21551;DHT22;10936;49.836;7.078;2022-10-16T18:08:51;20.70;99.90
21551;DHT22;10936;49.836;7.078;2022-10-16T18:11:18;20.60;99.90
21551;DHT22;10936;49.836;7.078;2022-10-16T18:13:44;20.60;99.90
21551;DHT22;10936;49.836;7.078;2022-10-16T18:16:12;20.60;99.90
21551;DHT22;10936;49.836;7.078;2022-10-16T18:18:39;20.60;99.90
21551;DHT22;10936;49.836;7.078;2022-10-16T18:21:08;20.60;99.90
21551;DHT22;10936;49.836;7.078;2022-10-16T18:23:36;20.60;99.90
21551;DHT22;10936;49.836;7.078;2022-10-16T18:26:03;20.60;99.90
21551;DHT22;10936;49.836;7.078;2022-10-16T18:28:29;20.50;99.90
21551;DHT22;10936;49.836;7.078;2022-10-16T18:30:56;20.60;99.90
21551;DHT22;10936;49.836;7.078;2022-10-16T18:33:22;20.60;99.90
21551;DHT22;10936;49.836;7.078;2022-10-16T18:35:47;20.60;99.90
21551;DHT22;10936;49.836;7.078;2022-10-16T18:38:14;20.60;99.90
21551;DHT22;10936;49.836;7.078;2022-10-16T18:40:40;20.60;99.90
21551;DHT22;10936;49.836;7.078;2022-10-16T18:43:06;20.60;99.90
21551;DHT22;10936;49.836;7.078;2022-10-16T18:45:31;20.60;99.90
21551;DHT22;10936;49.836;7.078;2022-10-16T18:47:57;20.60;99.90
21551;DHT22;10936;49.836;7.078;2022-10-16T18:50:23;20.60;99.90
21551;DHT22;10936;49.836;7.078;2022-10-16T18:52:48;20.50;99.90
21551;DHT22;10936;49.836;7.078;2022-10-16T18:55:14;20.50;99.90
21551;DHT22;10936;49.836;7.078;2022-10-16T18:57:40;20.50;99.90
21551;DHT22;10936;49.836;7.078;2022-10-16T19:00:06;20.50;99.90
21551;DHT22;10936;49.836;7.078;2022-10-16T19:02:32;20.50;99.90
21551;DHT22;10936;49.836;7.078;2022-10-16T19:04:58;20.50;99.90
21551;DHT22;10936;49.836;7.078;2022-10-16T19:07:24;20.50;99.90
21551;DHT22;10936;49.836;7.078;2022-10-16T19:09:50;20.50;99.90
21551;DHT22;10936;49.836;7.078;2022-10-16T19:12:15;20.50;99.90
21551;DHT22;10936;49.836;7.078;2022-10-16T19:14:41;20.50;99.90
21551;DHT22;10936;49.836;7.078;2022-10-16T19:17:07;20.50;99.90
21551;DHT22;10936;49.836;7.078;2022-10-16T19:19:33;20.50;99.90
21551;DHT22;10936;49.836;7.078;2022-10-16T19:21:58;20.50;99.90
21551;DHT22;10936;49.836;7.078;2022-10-16T19:24:42;20.50;99.90
21551;DHT22;10936;49.836;7.078;2022-10-16T19:27:08;20.50;99.90
21551;DHT22;10936;49.836;7.078;2022-10-16T19:29:34;20.50;99.90
21551;DHT22;10936;49.836;7.078;2022-10-16T19:31:59;20.50;99.90
21551;DHT22;10936;49.836;7.078;2022-10-16T19:34:27;20.50;99.90
21551;DHT22;10936;49.836;7.078;2022-10-16T19:36:53;20.50;99.90
21551;DHT22;10936;49.836;7.078;2022-10-16T19:39:19;20.50;99.90
21551;DHT22;10936;49.836;7.078;2022-10-16T19:41:46;20.50;99.90
21551;DHT22;10936;49.836;7.078;2022-10-16T19:44:14;20.50;99.90
21551;DHT22;10936;49.836;7.078;2022-10-16T19:46:41;20.50;99.90
21551;DHT22;10936;49.836;7.078;2022-10-16T19:49:09;20.50;99.90
21551;DHT22;10936;49.836;7.078;2022-10-16T19:51:36;20.50;99.90
21551;DHT22;10936;49.836;7.078;2022-10-16T19:54:07;20.40;99.90
21551;DHT22;10936;49.836;7.078;2022-10-16T19:56:36;20.40;99.90
21551;DHT22;10936;49.836;7.078;2022-10-16T19:59:03;20.40;99.90
21551;DHT22;10936;49.836;7.078;2022-10-16T20:01:30;20.40;99.90
21551;DHT22;10936;49.836;7.078;2022-10-16T20:03:56;20.40;99.90
21551;DHT22;10936;49.836;7.078;2022-10-16T20:06:23;20.40;99.90
21551;DHT22;10936;49.836;7.078;2022-10-16T20:08:50;20.40;99.90
21551;DHT22;10936;49.836;7.078;2022-10-16T20:11:19;20.40;99.90
21551;DHT22;10936;49.836;7.078;2022-10-16T20:13:45;20.40;99.90
21551;DHT22;10936;49.836;7.078;2022-10-16T20:16:11;20.40;99.90
21551;DHT22;10936;49.836;7.078;2022-10-16T20:18:39;20.40;99.90
21551;DHT22;10936;49.836;7.078;2022-10-16T20:21:26;20.40;99.90
21551;DHT22;10936;49.836;7.078;2022-10-16T20:23:52;20.40;99.90
21551;DHT22;10936;49.836;7.078;2022-10-16T20:26:19;20.40;99.90
21551;DHT22;10936;49.836;7.078;2022-10-16T20:28:46;20.50;99.90
21551;DHT22;10936;49.836;7.078;2022-10-16T20:31:14;20.40;99.90
21551;DHT22;10936;49.836;7.078;2022-10-16T20:33:43;20.40;99.90
21551;DHT22;10936;49.836;7.078;2022-10-16T20:36:13;20.40;99.90
21551;DHT22;10936;49.836;7.078;2022-10-16T20:38:39;20.40;99.90
21551;DHT22;10936;49.836;7.078;2022-10-16T20:41:05;20.40;99.90
21551;DHT22;10936;49.836;7.078;2022-10-16T20:43:31;20.40;99.90
21551;DHT22;10936;49.836;7.078;2022-10-16T20:46:01;20.40;99.90
21551;DHT22;10936;49.836;7.078;2022-10-16T20:48:28;20.40;99.90
21551;DHT22;10936;49.836;7.078;2022-10-16T20:50:53;20.40;99.90
21551;DHT22;10936;49.836;7.078;2022-10-16T20:53:19;20.40;99.90
21551;DHT22;10936;49.836;7.078;2022-10-16T20:55:44;20.40;99.90
21551;DHT22;10936;49.836;7.078;2022-10-16T20:58:10;20.40;99.90
21551;DHT22;10936;49.836;7.078;2022-10-16T21:00:37;20.40;99.90
21551;DHT22;10936;49.836;7.078;2022-10-16T21:03:03;20.40;99.90
21551;DHT22;10936;49.836;7.078;2022-10-16T21:05:29;20.40;99.90
21551;DHT22;10936;49.836;7.078;2022-10-16T21:07:57;20.40;99.90
21551;DHT22;10936;49.836;7.078;2022-10-16T21:10:23;20.40;99.90
21551;DHT22;10936;49.836;7.078;2022-10-16T21:12:52;20.40;99.90
21551;DHT22;10936;49.836;7.078;2022-10-16T21:15:19;20.40;99.90
21551;DHT22;10936;49.836;7.078;2022-10-16T21:17:44;20.40;99.90
21551;DHT22;10936;49.836;7.078;2022-10-16T21:20:10;20.40;99.90
21551;DHT22;10936;49.836;7.078;2022-10-16T21:22:36;20.40;99.90
21551;DHT22;10936;49.836;7.078;2022-10-16T21:25:01;20.40;99.90
21551;DHT22;10936;49.836;7.078;2022-10-16T21:27:27;20.40;99.90
21551;DHT22;10936;49.836;7.078;2022-10-16T21:29:53;20.40;99.90
